DLH648 UAAA-EDDF
Flight info
| Callsign | DLH648 |
|---|---|
| Flight time | N/A |
| Altitude | 38000 |
| Route | ETED1B ETEDA REGMU L143 TIPSA M610 DIVNO N161 LEYLA N644 ADEKI BADIR LAGAS NOLGA UN61 TBN UM11 CRM UL746 ODERO L621 REVDA PILAT URELA SOBSA TGM REBLA RILAS SAG MIZOL VALPI BNO VLM ELMEK DONAD RAPET T170 GAPLA T178 KERAX KERA5A |
| Aircraft | A339/H-SADE1E2E3GHIJ3J5M1P2RWXY/LB2D1 |
Departure
| Time | 2026-05-06 10:35 |
|---|---|
| Airport | Almaty International Airport (UAAA) |
Arrival
| Time | N/A |
|---|---|
| Airport | Frankfurt Main Airport (EDDF) |
| Time | Latitude | Longitude | Altitude | Speed | Heading |
|---|---|---|---|---|---|
| 2026-05-06 10:34 | 43.36263 | 77.06062 | 2243 ft | 0 kts | 237° |
| 2026-05-06 10:34 | 43.36244 | 77.06023 | 2243 ft | 23 kts | 235° |
| 2026-05-06 10:34 | 43.36017 | 77.05558 | 2239 ft | 92 kts | 236° |
| 2026-05-06 10:35 | 43.35545 | 77.04600 | 2237 ft | 149 kts | 234° |
| 2026-05-06 10:35 | 43.34857 | 77.03225 | 2259 ft | 194 kts | 233° |
| 2026-05-06 10:35 | 43.34074 | 77.01662 | 2714 ft | 204 kts | 236° |
| 2026-05-06 10:35 | 43.33244 | 76.99985 | 3178 ft | 220 kts | 237° |
| 2026-05-06 10:36 | 43.32634 | 76.98016 | 3596 ft | 236 kts | 269° |
| 2026-05-06 10:36 | 43.32901 | 76.95851 | 4036 ft | 228 kts | 290° |
| 2026-05-06 10:36 | 43.33473 | 76.93826 | 4436 ft | 233 kts | 293° |
| 2026-05-06 10:36 | 43.34073 | 76.91730 | 4819 ft | 241 kts | 291° |
| 2026-05-06 10:37 | 43.34642 | 76.89574 | 5316 ft | 243 kts | 290° |
| 2026-05-06 10:37 | 43.35187 | 76.87364 | 5816 ft | 246 kts | 289° |
| 2026-05-06 10:37 | 43.35726 | 76.85064 | 6080 ft | 260 kts | 288° |
| 2026-05-06 10:37 | 43.36275 | 76.82642 | 6331 ft | 274 kts | 288° |
| 2026-05-06 10:38 | 43.36841 | 76.80091 | 6539 ft | 289 kts | 288° |
| 2026-05-06 10:38 | 43.37442 | 76.77358 | 6839 ft | 304 kts | 288° |
| 2026-05-06 10:38 | 43.38055 | 76.74548 | 7082 ft | 318 kts | 288° |
| 2026-05-06 10:38 | 43.38702 | 76.71568 | 7266 ft | 332 kts | 287° |
| 2026-05-06 10:39 | 43.39377 | 76.68453 | 7495 ft | 347 kts | 287° |
| 2026-05-06 10:39 | 43.40077 | 76.65206 | 7794 ft | 360 kts | 287° |
| 2026-05-06 10:39 | 43.40781 | 76.61937 | 8355 ft | 364 kts | 287° |
| 2026-05-06 10:39 | 43.41497 | 76.58601 | 8998 ft | 365 kts | 287° |
| 2026-05-06 10:40 | 43.42211 | 76.55272 | 9648 ft | 367 kts | 287° |
| 2026-05-06 10:40 | 43.42942 | 76.51863 | 10267 ft | 370 kts | 287° |
| 2026-05-06 10:40 | 43.43659 | 76.48509 | 10830 ft | 373 kts | 287° |
| 2026-05-06 10:40 | 43.44400 | 76.45041 | 11406 ft | 376 kts | 286° |
| 2026-05-06 10:41 | 43.45125 | 76.41636 | 11998 ft | 378 kts | 286° |
| 2026-05-06 10:41 | 43.45869 | 76.38139 | 12610 ft | 381 kts | 286° |
| 2026-05-06 10:41 | 43.46614 | 76.34632 | 13218 ft | 383 kts | 285° |
| 2026-05-06 10:41 | 43.47356 | 76.31129 | 13829 ft | 386 kts | 285° |
| 2026-05-06 10:42 | 43.48101 | 76.27597 | 14443 ft | 388 kts | 285° |
| 2026-05-06 10:42 | 43.48853 | 76.24028 | 15022 ft | 390 kts | 285° |
| 2026-05-06 10:42 | 43.49610 | 76.20431 | 15598 ft | 393 kts | 285° |
| 2026-05-06 10:42 | 43.50365 | 76.16837 | 16158 ft | 396 kts | 285° |
| 2026-05-06 10:43 | 43.51127 | 76.13208 | 16726 ft | 398 kts | 285° |
| 2026-05-06 10:43 | 43.51899 | 76.09532 | 17318 ft | 400 kts | 285° |
| 2026-05-06 10:43 | 43.52665 | 76.05875 | 17863 ft | 403 kts | 285° |
| 2026-05-06 10:44 | 43.54219 | 75.98433 | 18964 ft | 408 kts | 285° |
| 2026-05-06 10:44 | 43.55011 | 75.94637 | 19485 ft | 412 kts | 285° |
| 2026-05-06 10:44 | 43.55796 | 75.90861 | 19999 ft | 415 kts | 285° |
| 2026-05-06 10:44 | 43.56588 | 75.87051 | 20487 ft | 418 kts | 285° |
| 2026-05-06 10:45 | 43.57386 | 75.83203 | 20962 ft | 421 kts | 285° |
| 2026-05-06 10:45 | 43.58191 | 75.79308 | 21452 ft | 423 kts | 285° |
| 2026-05-06 10:45 | 43.58988 | 75.75440 | 21917 ft | 426 kts | 285° |
| 2026-05-06 10:45 | 43.59801 | 75.71495 | 22374 ft | 428 kts | 285° |
| 2026-05-06 10:46 | 43.60618 | 75.67522 | 22818 ft | 431 kts | 285° |
| 2026-05-06 10:46 | 43.61429 | 75.63569 | 23245 ft | 433 kts | 285° |
| 2026-05-06 10:46 | 43.62246 | 75.59579 | 23675 ft | 435 kts | 285° |
| 2026-05-06 10:46 | 43.62972 | 75.55510 | 24047 ft | 438 kts | 282° |
| 2026-05-06 10:47 | 43.63497 | 75.51360 | 24437 ft | 441 kts | 278° |
| 2026-05-06 10:47 | 43.63813 | 75.47211 | 24803 ft | 444 kts | 274° |
| 2026-05-06 10:47 | 43.64003 | 75.42925 | 25160 ft | 446 kts | 274° |
| 2026-05-06 10:47 | 43.64170 | 75.38692 | 25525 ft | 448 kts | 274° |
| 2026-05-06 10:48 | 43.64336 | 75.34393 | 25869 ft | 450 kts | 273° |
| 2026-05-06 10:48 | 43.64500 | 75.30100 | 26211 ft | 452 kts | 273° |
| 2026-05-06 10:48 | 43.64666 | 75.25757 | 26535 ft | 455 kts | 273° |
| 2026-05-06 10:48 | 43.64834 | 75.21381 | 26860 ft | 457 kts | 273° |
| 2026-05-06 10:49 | 43.64999 | 75.17039 | 27179 ft | 459 kts | 273° |
| 2026-05-06 10:49 | 43.65165 | 75.12652 | 27489 ft | 460 kts | 273° |
| 2026-05-06 10:49 | 43.65332 | 75.08262 | 27802 ft | 462 kts | 273° |
| 2026-05-06 10:49 | 43.65496 | 75.03804 | 28091 ft | 464 kts | 274° |
| 2026-05-06 10:50 | 43.65659 | 74.99363 | 28390 ft | 466 kts | 274° |
| 2026-05-06 10:50 | 43.65824 | 74.94875 | 28670 ft | 468 kts | 273° |
| 2026-05-06 10:50 | 43.65987 | 74.90366 | 28930 ft | 470 kts | 274° |
| 2026-05-06 10:50 | 43.66148 | 74.85841 | 29179 ft | 472 kts | 274° |
| 2026-05-06 10:51 | 43.66306 | 74.81350 | 29402 ft | 474 kts | 274° |
| 2026-05-06 10:51 | 43.66464 | 74.76792 | 29644 ft | 476 kts | 274° |
| 2026-05-06 10:51 | 43.66620 | 74.72282 | 29904 ft | 477 kts | 274° |
| 2026-05-06 10:51 | 43.66777 | 74.67686 | 30130 ft | 479 kts | 274° |
| 2026-05-06 10:52 | 43.66930 | 74.63123 | 30338 ft | 481 kts | 274° |
| 2026-05-06 10:52 | 43.67084 | 74.58515 | 30521 ft | 482 kts | 274° |
| 2026-05-06 10:52 | 43.67235 | 74.53920 | 30775 ft | 482 kts | 274° |
| 2026-05-06 10:52 | 43.67386 | 74.49263 | 31089 ft | 481 kts | 274° |
| 2026-05-06 10:53 | 43.67533 | 74.44700 | 31403 ft | 479 kts | 274° |
| 2026-05-06 10:53 | 43.67678 | 74.40142 | 31685 ft | 478 kts | 274° |
| 2026-05-06 10:53 | 43.67822 | 74.35578 | 31923 ft | 478 kts | 274° |
| 2026-05-06 10:53 | 43.67963 | 74.30994 | 32146 ft | 478 kts | 274° |
| 2026-05-06 10:54 | 43.68103 | 74.26417 | 32382 ft | 478 kts | 274° |
| 2026-05-06 10:54 | 43.68240 | 74.21850 | 32605 ft | 479 kts | 274° |
| 2026-05-06 10:54 | 43.68378 | 74.17275 | 32830 ft | 478 kts | 274° |
| 2026-05-06 10:54 | 43.68516 | 74.12721 | 33081 ft | 478 kts | 274° |
| 2026-05-06 10:55 | 43.68653 | 74.08159 | 33320 ft | 477 kts | 274° |
| 2026-05-06 10:55 | 43.68791 | 74.03552 | 33557 ft | 477 kts | 274° |
| 2026-05-06 10:55 | 43.68925 | 73.98998 | 33778 ft | 476 kts | 274° |
| 2026-05-06 10:55 | 43.69057 | 73.94443 | 34005 ft | 476 kts | 275° |
| 2026-05-06 10:56 | 43.69190 | 73.89872 | 34077 ft | 476 kts | 275° |
| 2026-05-06 10:56 | 43.69438 | 73.80823 | 34085 ft | 474 kts | 275° |
| 2026-05-06 10:57 | 43.69432 | 73.71737 | 34085 ft | 475 kts | 270° |
| 2026-05-06 10:57 | 43.68992 | 73.62695 | 34080 ft | 476 kts | 269° |
| 2026-05-06 10:58 | 43.68516 | 73.53567 | 34063 ft | 476 kts | 269° |
| 2026-05-06 10:58 | 43.68039 | 73.44478 | 34081 ft | 477 kts | 269° |
| 2026-05-06 10:59 | 43.67555 | 73.35367 | 34078 ft | 476 kts | 269° |
| 2026-05-06 10:59 | 43.67064 | 73.26294 | 34087 ft | 476 kts | 269° |
| 2026-05-06 11:00 | 43.66570 | 73.17226 | 34084 ft | 476 kts | 269° |
| 2026-05-06 11:00 | 43.66069 | 73.08181 | 34082 ft | 476 kts | 269° |
| 2026-05-06 11:01 | 43.65554 | 72.99066 | 34083 ft | 475 kts | 270° |
| 2026-05-06 11:01 | 43.65045 | 72.90044 | 34081 ft | 476 kts | 269° |
| 2026-05-06 11:02 | 43.64517 | 72.80953 | 34081 ft | 476 kts | 270° |
| 2026-05-06 11:02 | 43.63982 | 72.71867 | 34080 ft | 478 kts | 270° |
| 2026-05-06 11:03 | 43.63447 | 72.62771 | 34080 ft | 477 kts | 270° |
| 2026-05-06 11:03 | 43.62893 | 72.53633 | 34075 ft | 478 kts | 271° |
| 2026-05-06 11:04 | 43.62341 | 72.44546 | 34069 ft | 478 kts | 270° |
| 2026-05-06 11:04 | 43.61774 | 72.35401 | 34065 ft | 480 kts | 271° |
| 2026-05-06 11:05 | 43.61202 | 72.26248 | 34061 ft | 482 kts | 270° |
| 2026-05-06 11:05 | 43.60623 | 72.17092 | 34065 ft | 479 kts | 271° |
| 2026-05-06 11:06 | 43.60037 | 72.07979 | 34066 ft | 482 kts | 270° |
| 2026-05-06 11:06 | 43.59439 | 71.98757 | 34057 ft | 483 kts | 271° |
| 2026-05-06 11:07 | 43.58835 | 71.89553 | 34057 ft | 482 kts | 271° |
| 2026-05-06 11:07 | 43.58226 | 71.80410 | 34049 ft | 482 kts | 271° |
| 2026-05-06 11:08 | 43.57615 | 71.71294 | 34049 ft | 476 kts | 270° |
| 2026-05-06 11:08 | 43.56996 | 71.62249 | 34068 ft | 478 kts | 271° |
| 2026-05-06 11:09 | 43.56369 | 71.53145 | 34042 ft | 476 kts | 270° |
| 2026-05-06 11:09 | 43.55734 | 71.44070 | 34050 ft | 477 kts | 271° |
| 2026-05-06 11:10 | 43.55104 | 71.35062 | 34045 ft | 474 kts | 270° |
| 2026-05-06 11:10 | 43.54454 | 71.26018 | 34056 ft | 474 kts | 270° |
| 2026-05-06 11:11 | 43.53811 | 71.17082 | 34056 ft | 472 kts | 270° |
| 2026-05-06 11:11 | 43.53158 | 71.08086 | 34045 ft | 471 kts | 269° |
| 2026-05-06 11:12 | 43.52528 | 70.99155 | 34038 ft | 470 kts | 271° |
| 2026-05-06 11:12 | 43.52487 | 70.90211 | 34041 ft | 463 kts | 278° |
| 2026-05-06 11:13 | 43.53242 | 70.81482 | 34040 ft | 459 kts | 284° |
| 2026-05-06 11:13 | 43.54762 | 70.73013 | 34041 ft | 456 kts | 291° |
| 2026-05-06 11:14 | 43.56784 | 70.64793 | 34042 ft | 455 kts | 292° |
| 2026-05-06 11:14 | 43.58845 | 70.56570 | 34048 ft | 454 kts | 292° |
| 2026-05-06 11:15 | 43.60885 | 70.48389 | 34051 ft | 454 kts | 292° |
| 2026-05-06 11:15 | 43.62928 | 70.40141 | 34049 ft | 453 kts | 292° |
| 2026-05-06 11:16 | 43.64947 | 70.31977 | 34044 ft | 454 kts | 291° |
| 2026-05-06 11:16 | 43.66978 | 70.23716 | 34043 ft | 454 kts | 291° |
| 2026-05-06 11:17 | 43.68993 | 70.15491 | 34039 ft | 454 kts | 291° |
| 2026-05-06 11:17 | 43.71014 | 70.07230 | 34037 ft | 454 kts | 291° |
| 2026-05-06 11:18 | 43.73019 | 69.98987 | 34034 ft | 455 kts | 291° |
| 2026-05-06 11:18 | 43.75025 | 69.90713 | 34031 ft | 455 kts | 291° |
| 2026-05-06 11:19 | 43.77026 | 69.82438 | 34019 ft | 455 kts | 291° |
| 2026-05-06 11:19 | 43.79012 | 69.74185 | 34014 ft | 455 kts | 290° |
| 2026-05-06 11:20 | 43.81328 | 69.64529 | 34013 ft | 454 kts | 290° |
| 2026-05-06 11:20 | 43.82975 | 69.57626 | 34019 ft | 453 kts | 291° |
| 2026-05-06 11:21 | 43.84949 | 69.49350 | 34012 ft | 454 kts | 290° |
| 2026-05-06 11:21 | 43.86906 | 69.41106 | 34011 ft | 453 kts | 290° |
| 2026-05-06 11:22 | 43.88864 | 69.32828 | 34016 ft | 454 kts | 289° |
| 2026-05-06 11:22 | 43.90818 | 69.24535 | 34015 ft | 453 kts | 289° |
| 2026-05-06 11:23 | 43.92800 | 69.16265 | 34016 ft | 453 kts | 290° |
| 2026-05-06 11:23 | 43.94813 | 69.08075 | 34015 ft | 453 kts | 290° |
| 2026-05-06 11:24 | 43.96832 | 68.99801 | 34032 ft | 453 kts | 290° |
| 2026-05-06 11:24 | 43.98840 | 68.91544 | 34015 ft | 453 kts | 290° |
| 2026-05-06 11:25 | 44.00848 | 68.83250 | 34020 ft | 453 kts | 289° |
| 2026-05-06 11:25 | 44.02826 | 68.75030 | 34013 ft | 452 kts | 289° |
| 2026-05-06 11:26 | 44.04755 | 68.66723 | 34026 ft | 453 kts | 289° |
| 2026-05-06 11:26 | 44.06657 | 68.58421 | 34045 ft | 452 kts | 289° |
| 2026-05-06 11:27 | 44.08562 | 68.50109 | 34028 ft | 452 kts | 288° |
| 2026-05-06 11:27 | 44.10466 | 68.41790 | 34039 ft | 452 kts | 288° |
| 2026-05-06 11:28 | 44.12361 | 68.33474 | 34060 ft | 452 kts | 287° |
| 2026-05-06 11:28 | 44.14244 | 68.25169 | 34040 ft | 452 kts | 287° |
| 2026-05-06 11:29 | 44.16116 | 68.16813 | 34061 ft | 453 kts | 287° |
| 2026-05-06 11:29 | 44.17986 | 68.08405 | 34058 ft | 454 kts | 287° |
| 2026-05-06 11:30 | 44.19842 | 68.00050 | 34064 ft | 453 kts | 287° |
| 2026-05-06 11:30 | 44.21697 | 67.91669 | 34068 ft | 453 kts | 287° |
| 2026-05-06 11:31 | 44.23535 | 67.83332 | 34073 ft | 453 kts | 287° |
| 2026-05-06 11:31 | 44.25371 | 67.74972 | 34081 ft | 453 kts | 287° |
| 2026-05-06 11:32 | 44.27200 | 67.66614 | 34094 ft | 454 kts | 287° |
| 2026-05-06 11:32 | 44.29036 | 67.58193 | 34068 ft | 453 kts | 286° |
| 2026-05-06 11:33 | 44.30856 | 67.49811 | 34064 ft | 454 kts | 286° |
| 2026-05-06 11:33 | 44.32689 | 67.41376 | 34023 ft | 454 kts | 286° |
| 2026-05-06 11:34 | 44.34509 | 67.32970 | 34018 ft | 455 kts | 286° |
| 2026-05-06 11:34 | 44.36322 | 67.24574 | 34018 ft | 455 kts | 285° |
| 2026-05-06 11:35 | 44.38136 | 67.16146 | 34004 ft | 454 kts | 285° |
| 2026-05-06 11:35 | 44.39950 | 67.07679 | 33998 ft | 455 kts | 285° |
| 2026-05-06 11:36 | 44.41744 | 66.99267 | 33987 ft | 455 kts | 285° |
| 2026-05-06 11:36 | 44.43544 | 66.90803 | 33981 ft | 456 kts | 285° |
| 2026-05-06 11:37 | 44.45340 | 66.82314 | 33976 ft | 456 kts | 285° |
| 2026-05-06 11:37 | 44.47128 | 66.73838 | 33977 ft | 456 kts | 285° |
| 2026-05-06 11:38 | 44.48908 | 66.65351 | 33978 ft | 456 kts | 285° |
| 2026-05-06 11:38 | 44.50694 | 66.56809 | 33974 ft | 457 kts | 285° |
| 2026-05-06 11:39 | 44.52364 | 66.48263 | 33977 ft | 456 kts | 283° |
| 2026-05-06 11:39 | 44.53989 | 66.39701 | 33963 ft | 457 kts | 283° |
| 2026-05-06 11:40 | 44.55617 | 66.31120 | 33958 ft | 457 kts | 282° |
| 2026-05-06 11:40 | 44.57247 | 66.22514 | 33968 ft | 458 kts | 282° |
| 2026-05-06 11:41 | 44.58865 | 66.13952 | 33974 ft | 458 kts | 283° |
| 2026-05-06 11:41 | 44.60487 | 66.05352 | 33956 ft | 458 kts | 283° |
| 2026-05-06 11:42 | 44.62112 | 65.96684 | 33973 ft | 458 kts | 282° |
| 2026-05-06 11:42 | 44.63712 | 65.88107 | 33963 ft | 458 kts | 282° |
| 2026-05-06 11:43 | 44.65328 | 65.79414 | 33952 ft | 462 kts | 282° |
| 2026-05-06 11:43 | 44.66937 | 65.70705 | 33939 ft | 462 kts | 282° |
| 2026-05-06 11:44 | 44.69343 | 65.57629 | 33935 ft | 464 kts | 281° |
| 2026-05-06 11:44 | 44.70972 | 65.48877 | 33942 ft | 464 kts | 282° |
| 2026-05-06 11:45 | 44.72621 | 65.40143 | 33949 ft | 466 kts | 282° |
| 2026-05-06 11:45 | 44.74271 | 65.31340 | 33957 ft | 467 kts | 281° |
| 2026-05-06 11:46 | 44.75912 | 65.22534 | 33942 ft | 467 kts | 281° |
| 2026-05-06 11:46 | 44.77546 | 65.13715 | 33951 ft | 468 kts | 281° |
| 2026-05-06 11:47 | 44.79172 | 65.04907 | 33952 ft | 469 kts | 281° |
| 2026-05-06 11:47 | 44.80811 | 64.96006 | 33946 ft | 471 kts | 280° |
| 2026-05-06 11:48 | 44.82431 | 64.87118 | 33948 ft | 472 kts | 280° |
| 2026-05-06 11:48 | 44.83999 | 64.78118 | 33949 ft | 472 kts | 280° |
| 2026-05-06 11:49 | 44.85532 | 64.69213 | 33936 ft | 472 kts | 280° |
| 2026-05-06 11:49 | 44.87070 | 64.60252 | 33945 ft | 472 kts | 279° |
| 2026-05-06 11:50 | 44.88527 | 64.51257 | 33948 ft | 471 kts | 279° |
| 2026-05-06 11:50 | 44.89952 | 64.42332 | 33937 ft | 470 kts | 279° |
| 2026-05-06 11:51 | 44.91383 | 64.33351 | 33950 ft | 470 kts | 278° |
| 2026-05-06 11:51 | 44.92808 | 64.24369 | 33932 ft | 469 kts | 278° |
| 2026-05-06 11:52 | 44.94218 | 64.15453 | 33941 ft | 468 kts | 278° |
| 2026-05-06 11:52 | 44.95627 | 64.06499 | 33949 ft | 469 kts | 278° |
| 2026-05-06 11:53 | 44.97021 | 63.97596 | 33944 ft | 468 kts | 278° |
| 2026-05-06 11:53 | 44.98416 | 63.88623 | 33944 ft | 469 kts | 278° |
| 2026-05-06 11:54 | 44.99799 | 63.79699 | 33934 ft | 469 kts | 278° |
| 2026-05-06 11:54 | 45.01190 | 63.70677 | 33942 ft | 470 kts | 278° |
| 2026-05-06 11:55 | 45.02572 | 63.61657 | 33940 ft | 471 kts | 278° |
| 2026-05-06 11:55 | 45.03934 | 63.52702 | 33939 ft | 470 kts | 278° |
| 2026-05-06 11:56 | 45.05298 | 63.43673 | 33936 ft | 470 kts | 278° |
| 2026-05-06 11:56 | 45.06652 | 63.34631 | 33926 ft | 470 kts | 277° |
| 2026-05-06 11:57 | 45.07995 | 63.25648 | 33926 ft | 470 kts | 277° |
| 2026-05-06 11:57 | 45.09333 | 63.16661 | 33936 ft | 470 kts | 277° |
| 2026-05-06 11:58 | 45.10667 | 63.07636 | 33892 ft | 469 kts | 277° |
| 2026-05-06 11:58 | 45.11990 | 62.98636 | 33934 ft | 470 kts | 277° |
| 2026-05-06 11:59 | 45.13311 | 62.89597 | 33924 ft | 471 kts | 277° |
| 2026-05-06 11:59 | 45.14631 | 62.80510 | 33922 ft | 471 kts | 277° |
| 2026-05-06 12:00 | 45.15943 | 62.71444 | 33914 ft | 471 kts | 277° |
| 2026-05-06 12:00 | 45.17244 | 62.62370 | 33915 ft | 471 kts | 277° |
| 2026-05-06 12:01 | 45.18534 | 62.53339 | 33895 ft | 472 kts | 277° |
| 2026-05-06 12:01 | 45.19821 | 62.44252 | 33905 ft | 472 kts | 277° |
| 2026-05-06 12:02 | 45.21104 | 62.35157 | 33891 ft | 471 kts | 277° |
| 2026-05-06 12:02 | 45.22382 | 62.26064 | 33936 ft | 471 kts | 276° |
| 2026-05-06 12:03 | 45.23648 | 62.17002 | 33946 ft | 471 kts | 276° |
| 2026-05-06 12:03 | 45.24909 | 62.07916 | 33942 ft | 471 kts | 276° |
| 2026-05-06 12:04 | 45.26163 | 61.98821 | 33916 ft | 471 kts | 276° |
| 2026-05-06 12:04 | 45.27415 | 61.89695 | 33955 ft | 471 kts | 276° |
| 2026-05-06 12:05 | 45.28643 | 61.80638 | 33936 ft | 471 kts | 276° |
| 2026-05-06 12:05 | 45.29873 | 61.71487 | 33951 ft | 471 kts | 276° |
| 2026-05-06 12:06 | 45.31086 | 61.62427 | 33949 ft | 471 kts | 276° |
| 2026-05-06 12:06 | 45.32297 | 61.53337 | 33920 ft | 471 kts | 276° |
| 2026-05-06 12:07 | 45.33508 | 61.44169 | 33906 ft | 472 kts | 276° |
| 2026-05-06 12:07 | 45.34703 | 61.35086 | 33945 ft | 471 kts | 276° |
| 2026-05-06 12:08 | 45.35896 | 61.25955 | 33913 ft | 471 kts | 276° |
| 2026-05-06 12:08 | 45.37086 | 61.16812 | 33924 ft | 471 kts | 276° |
| 2026-05-06 12:09 | 45.38256 | 61.07743 | 33938 ft | 471 kts | 276° |
| 2026-05-06 12:09 | 45.39435 | 60.98558 | 33928 ft | 472 kts | 276° |
| 2026-05-06 12:10 | 45.40600 | 60.89421 | 33901 ft | 471 kts | 276° |
| 2026-05-06 12:10 | 45.41758 | 60.80277 | 33898 ft | 471 kts | 276° |
| 2026-05-06 12:11 | 45.42863 | 60.71168 | 33940 ft | 470 kts | 275° |
| 2026-05-06 12:11 | 45.43904 | 60.62026 | 33915 ft | 469 kts | 275° |
| 2026-05-06 12:12 | 45.44936 | 60.52922 | 33933 ft | 469 kts | 275° |
| 2026-05-06 12:12 | 45.45970 | 60.43769 | 33917 ft | 469 kts | 275° |
| 2026-05-06 12:13 | 45.46997 | 60.34644 | 33945 ft | 468 kts | 274° |
| 2026-05-06 12:13 | 45.48015 | 60.25532 | 33933 ft | 469 kts | 274° |
| 2026-05-06 12:14 | 45.49027 | 60.16407 | 33922 ft | 469 kts | 274° |
| 2026-05-06 12:14 | 45.50033 | 60.07300 | 33932 ft | 469 kts | 274° |
| 2026-05-06 12:15 | 45.51039 | 59.98085 | 33942 ft | 469 kts | 274° |
| 2026-05-06 12:15 | 45.52027 | 59.88991 | 33935 ft | 468 kts | 274° |
| 2026-05-06 12:16 | 45.53011 | 59.79845 | 33922 ft | 466 kts | 274° |
| 2026-05-06 12:16 | 45.53981 | 59.70768 | 33932 ft | 466 kts | 274° |
| 2026-05-06 12:17 | 45.54947 | 59.61655 | 33935 ft | 465 kts | 274° |
| 2026-05-06 12:17 | 45.55904 | 59.52550 | 33918 ft | 465 kts | 274° |
| 2026-05-06 12:18 | 45.56851 | 59.43470 | 33925 ft | 465 kts | 274° |
| 2026-05-06 12:18 | 45.57793 | 59.34375 | 33936 ft | 466 kts | 274° |
| 2026-05-06 12:19 | 45.58733 | 59.25216 | 33918 ft | 465 kts | 274° |
| 2026-05-06 12:19 | 45.59660 | 59.16118 | 33930 ft | 464 kts | 274° |
| 2026-05-06 12:20 | 45.60577 | 59.07046 | 33929 ft | 464 kts | 274° |
| 2026-05-06 12:20 | 45.61486 | 58.97981 | 33945 ft | 464 kts | 274° |
| 2026-05-06 12:21 | 45.62389 | 58.88903 | 33946 ft | 463 kts | 273° |
| 2026-05-06 12:21 | 45.63281 | 58.79865 | 33943 ft | 462 kts | 273° |
| 2026-05-06 12:22 | 45.64166 | 58.70792 | 33937 ft | 462 kts | 273° |
| 2026-05-06 12:22 | 45.65045 | 58.61723 | 33942 ft | 463 kts | 273° |
| 2026-05-06 12:23 | 45.65914 | 58.52673 | 33944 ft | 463 kts | 273° |
| 2026-05-06 12:23 | 45.66782 | 58.43574 | 33955 ft | 463 kts | 273° |
| 2026-05-06 12:24 | 45.67640 | 58.34497 | 33928 ft | 463 kts | 272° |
| 2026-05-06 12:24 | 45.68492 | 58.25403 | 33928 ft | 463 kts | 272° |
| 2026-05-06 12:25 | 45.69339 | 58.16289 | 33898 ft | 463 kts | 272° |
| 2026-05-06 12:25 | 45.70181 | 58.07161 | 33925 ft | 463 kts | 272° |
| 2026-05-06 12:26 | 45.71012 | 57.98068 | 33925 ft | 463 kts | 272° |
| 2026-05-06 12:26 | 45.71838 | 57.88949 | 33913 ft | 463 kts | 272° |
| 2026-05-06 12:27 | 45.72602 | 57.79838 | 33912 ft | 461 kts | 270° |
| 2026-05-06 12:27 | 45.72679 | 57.70761 | 33908 ft | 457 kts | 262° |
| 2026-05-06 12:28 | 45.71915 | 57.61797 | 33891 ft | 452 kts | 255° |
| 2026-05-06 12:28 | 45.70359 | 57.53180 | 33898 ft | 449 kts | 249° |
| 2026-05-06 12:29 | 45.68277 | 57.44781 | 33895 ft | 449 kts | 248° |
| 2026-05-06 12:29 | 45.66177 | 57.36441 | 33898 ft | 449 kts | 248° |
| 2026-05-06 12:30 | 45.64061 | 57.28068 | 33892 ft | 449 kts | 247° |
| 2026-05-06 12:30 | 45.61941 | 57.19707 | 33931 ft | 449 kts | 247° |
| 2026-05-06 12:31 | 45.59809 | 57.11323 | 33927 ft | 449 kts | 247° |
| 2026-05-06 12:31 | 45.57678 | 57.02977 | 33893 ft | 449 kts | 247° |
| 2026-05-06 12:32 | 45.55544 | 56.94650 | 33884 ft | 449 kts | 247° |
| 2026-05-06 12:32 | 45.53397 | 56.86301 | 33879 ft | 449 kts | 247° |
| 2026-05-06 12:33 | 45.51246 | 56.77967 | 33897 ft | 449 kts | 247° |
| 2026-05-06 12:33 | 45.49095 | 56.69664 | 33897 ft | 450 kts | 247° |
| 2026-05-06 12:34 | 45.46922 | 56.61302 | 33891 ft | 450 kts | 247° |
| 2026-05-06 12:34 | 45.44752 | 56.52979 | 33892 ft | 450 kts | 247° |
| 2026-05-06 12:35 | 45.42573 | 56.44660 | 33885 ft | 450 kts | 247° |
| 2026-05-06 12:35 | 45.40395 | 56.36368 | 33913 ft | 448 kts | 247° |
| 2026-05-06 12:36 | 45.38224 | 56.28140 | 33903 ft | 447 kts | 246° |
| 2026-05-06 12:36 | 45.36034 | 56.19857 | 33868 ft | 448 kts | 246° |
| 2026-05-06 12:37 | 45.33854 | 56.11649 | 33880 ft | 447 kts | 246° |
| 2026-05-06 12:37 | 45.31653 | 56.03381 | 33915 ft | 448 kts | 246° |
| 2026-05-06 12:38 | 45.29452 | 55.95141 | 33870 ft | 448 kts | 246° |
| 2026-05-06 12:38 | 45.27243 | 55.86901 | 33880 ft | 448 kts | 246° |
| 2026-05-06 12:39 | 45.25011 | 55.78610 | 33874 ft | 448 kts | 246° |
| 2026-05-06 12:39 | 45.22785 | 55.70364 | 33851 ft | 449 kts | 246° |
| 2026-05-06 12:40 | 45.20567 | 55.62180 | 33891 ft | 449 kts | 246° |
| 2026-05-06 12:40 | 45.18335 | 55.53958 | 33872 ft | 448 kts | 246° |
| 2026-05-06 12:41 | 45.16099 | 55.45751 | 33883 ft | 447 kts | 246° |
| 2026-05-06 12:41 | 45.13859 | 55.37563 | 33876 ft | 448 kts | 246° |
| 2026-05-06 12:42 | 45.11523 | 55.29427 | 33881 ft | 446 kts | 242° |
| 2026-05-06 12:42 | 45.08572 | 55.21754 | 33867 ft | 443 kts | 236° |
| 2026-05-06 12:43 | 45.05005 | 55.14721 | 33872 ft | 441 kts | 229° |
| 2026-05-06 12:43 | 45.00870 | 55.08394 | 33868 ft | 440 kts | 223° |
| 2026-05-06 12:44 | 44.96405 | 55.02564 | 33879 ft | 439 kts | 222° |
| 2026-05-06 12:44 | 44.91922 | 54.96728 | 33876 ft | 440 kts | 222° |
| 2026-05-06 12:45 | 44.87417 | 54.90892 | 33876 ft | 440 kts | 222° |
| 2026-05-06 12:46 | 44.80658 | 54.82167 | 33873 ft | 439 kts | 222° |
| 2026-05-06 12:46 | 44.76186 | 54.76407 | 33882 ft | 439 kts | 222° |
| 2026-05-06 12:47 | 44.71669 | 54.70609 | 33881 ft | 439 kts | 222° |
| 2026-05-06 12:47 | 44.67346 | 54.64559 | 33880 ft | 440 kts | 226° |
| 2026-05-06 12:48 | 44.63467 | 54.58026 | 33881 ft | 440 kts | 231° |
| 2026-05-06 12:48 | 44.59912 | 54.50999 | 33891 ft | 441 kts | 233° |
| 2026-05-06 12:49 | 44.56409 | 54.43991 | 33895 ft | 442 kts | 233° |
| 2026-05-06 12:49 | 44.52897 | 54.36975 | 33894 ft | 440 kts | 233° |
| 2026-05-06 12:50 | 44.49379 | 54.29954 | 33903 ft | 441 kts | 233° |
| 2026-05-06 12:50 | 44.45871 | 54.22970 | 33892 ft | 441 kts | 232° |
| 2026-05-06 12:51 | 44.42348 | 54.15968 | 33899 ft | 441 kts | 232° |
| 2026-05-06 12:51 | 44.38811 | 54.08959 | 33891 ft | 441 kts | 232° |
| 2026-05-06 12:52 | 44.35282 | 54.01980 | 33907 ft | 439 kts | 232° |
| 2026-05-06 12:52 | 44.31773 | 53.95057 | 33891 ft | 439 kts | 232° |
| 2026-05-06 12:53 | 44.28244 | 53.88114 | 33906 ft | 441 kts | 232° |
| 2026-05-06 12:53 | 44.24702 | 53.81160 | 33873 ft | 440 kts | 232° |
| 2026-05-06 12:54 | 44.21166 | 53.74233 | 33886 ft | 441 kts | 232° |
| 2026-05-06 12:54 | 44.17606 | 53.67277 | 33886 ft | 441 kts | 232° |
| 2026-05-06 12:55 | 44.14042 | 53.60332 | 33878 ft | 441 kts | 232° |
| 2026-05-06 12:55 | 44.10499 | 53.53437 | 33908 ft | 440 kts | 232° |
| 2026-05-06 12:56 | 44.06955 | 53.46559 | 33891 ft | 441 kts | 232° |
| 2026-05-06 12:56 | 44.03394 | 53.39666 | 33939 ft | 441 kts | 232° |
| 2026-05-06 12:57 | 43.99828 | 53.32776 | 33905 ft | 440 kts | 232° |
| 2026-05-06 12:57 | 43.96251 | 53.25880 | 33887 ft | 440 kts | 232° |
| 2026-05-06 12:58 | 43.92689 | 53.19024 | 33902 ft | 440 kts | 232° |
| 2026-05-06 12:58 | 43.89115 | 53.12168 | 33880 ft | 439 kts | 232° |
| 2026-05-06 12:59 | 43.85544 | 53.05350 | 33902 ft | 439 kts | 232° |
| 2026-05-06 12:59 | 43.81943 | 52.98499 | 33918 ft | 439 kts | 232° |
| 2026-05-06 13:00 | 43.78366 | 52.91691 | 33896 ft | 438 kts | 232° |
| 2026-05-06 13:00 | 43.74799 | 52.84920 | 33912 ft | 438 kts | 232° |
| 2026-05-06 13:01 | 43.71206 | 52.78103 | 33924 ft | 440 kts | 232° |
| 2026-05-06 13:01 | 43.67631 | 52.71347 | 33915 ft | 440 kts | 232° |
| 2026-05-06 13:02 | 43.64023 | 52.64565 | 33906 ft | 438 kts | 232° |
| 2026-05-06 13:02 | 43.60406 | 52.57814 | 33934 ft | 439 kts | 231° |
| 2026-05-06 13:03 | 43.56781 | 52.51047 | 33908 ft | 440 kts | 231° |
| 2026-05-06 13:03 | 43.53160 | 52.44306 | 33911 ft | 438 kts | 232° |
| 2026-05-06 13:04 | 43.49539 | 52.37573 | 33920 ft | 438 kts | 232° |
| 2026-05-06 13:04 | 43.45938 | 52.30889 | 33938 ft | 437 kts | 231° |
| 2026-05-06 13:05 | 43.42300 | 52.24146 | 33918 ft | 440 kts | 231° |
| 2026-05-06 13:05 | 43.38677 | 52.17456 | 33914 ft | 438 kts | 231° |
| 2026-05-06 13:06 | 43.35030 | 52.10731 | 33909 ft | 440 kts | 231° |
| 2026-05-06 13:06 | 43.31387 | 52.04033 | 33912 ft | 440 kts | 231° |
| 2026-05-06 13:07 | 43.27734 | 51.97330 | 33912 ft | 441 kts | 231° |
| 2026-05-06 13:07 | 43.24069 | 51.90621 | 33937 ft | 440 kts | 231° |
| 2026-05-06 13:08 | 43.20398 | 51.83915 | 33927 ft | 440 kts | 231° |
| 2026-05-06 13:08 | 43.16737 | 51.77242 | 33923 ft | 440 kts | 231° |
| 2026-05-06 13:09 | 43.13054 | 51.70547 | 33940 ft | 439 kts | 231° |
| 2026-05-06 13:09 | 43.09382 | 51.63883 | 33957 ft | 440 kts | 231° |
| 2026-05-06 13:10 | 43.05727 | 51.57264 | 33939 ft | 438 kts | 231° |
| 2026-05-06 13:10 | 43.02061 | 51.50646 | 33935 ft | 437 kts | 231° |
| 2026-05-06 13:11 | 42.98399 | 51.44041 | 33949 ft | 437 kts | 231° |
| 2026-05-06 13:11 | 42.94735 | 51.37459 | 33961 ft | 437 kts | 232° |
| 2026-05-06 13:12 | 42.91071 | 51.30885 | 33965 ft | 437 kts | 231° |
| 2026-05-06 13:12 | 42.87405 | 51.24320 | 33970 ft | 436 kts | 231° |
| 2026-05-06 13:13 | 42.83709 | 51.17709 | 33992 ft | 439 kts | 231° |
| 2026-05-06 13:13 | 42.80029 | 51.11155 | 33975 ft | 438 kts | 231° |
| 2026-05-06 13:14 | 42.76345 | 51.04601 | 33976 ft | 436 kts | 231° |
| 2026-05-06 13:14 | 42.72648 | 50.98038 | 33972 ft | 436 kts | 231° |
| 2026-05-06 13:15 | 42.68959 | 50.91506 | 33975 ft | 437 kts | 231° |
| 2026-05-06 13:15 | 42.65279 | 50.85002 | 33954 ft | 436 kts | 231° |
| 2026-05-06 13:16 | 42.61590 | 50.78494 | 33954 ft | 438 kts | 231° |
| 2026-05-06 13:16 | 42.57886 | 50.71973 | 33965 ft | 437 kts | 231° |
| 2026-05-06 13:17 | 42.54184 | 50.65470 | 33948 ft | 434 kts | 231° |
| 2026-05-06 13:17 | 42.50497 | 50.59007 | 33971 ft | 435 kts | 231° |
| 2026-05-06 13:18 | 42.46778 | 50.52498 | 34000 ft | 436 kts | 232° |
| 2026-05-06 13:18 | 42.43099 | 50.45992 | 33958 ft | 436 kts | 233° |
| 2026-05-06 13:19 | 42.39601 | 50.39384 | 34028 ft | 433 kts | 234° |
| 2026-05-06 13:19 | 42.36084 | 50.32755 | 34008 ft | 435 kts | 233° |
| 2026-05-06 13:20 | 42.32569 | 50.26134 | 33998 ft | 435 kts | 233° |
| 2026-05-06 13:20 | 42.29034 | 50.19481 | 34007 ft | 436 kts | 233° |
| 2026-05-06 13:21 | 42.25514 | 50.12870 | 33999 ft | 436 kts | 233° |
| 2026-05-06 13:21 | 42.21988 | 50.06267 | 33966 ft | 435 kts | 233° |
| 2026-05-06 13:22 | 42.18451 | 49.99648 | 34009 ft | 437 kts | 233° |
| 2026-05-06 13:22 | 42.14912 | 49.93050 | 33995 ft | 436 kts | 233° |
| 2026-05-06 13:23 | 42.11361 | 49.86436 | 33981 ft | 436 kts | 233° |
| 2026-05-06 13:23 | 42.07816 | 49.79850 | 33978 ft | 436 kts | 233° |
| 2026-05-06 13:24 | 42.04275 | 49.73282 | 33981 ft | 436 kts | 233° |
| 2026-05-06 13:24 | 42.00713 | 49.66694 | 34027 ft | 433 kts | 234° |
| 2026-05-06 13:25 | 41.97176 | 49.60163 | 33986 ft | 434 kts | 234° |
| 2026-05-06 13:25 | 41.93639 | 49.53643 | 34043 ft | 435 kts | 234° |
| 2026-05-06 13:26 | 41.90087 | 49.47107 | 33998 ft | 434 kts | 234° |
| 2026-05-06 13:26 | 41.86529 | 49.40569 | 34010 ft | 434 kts | 234° |
| 2026-05-06 13:27 | 41.82951 | 49.34021 | 34041 ft | 435 kts | 233° |
| 2026-05-06 13:27 | 41.79512 | 49.27440 | 34048 ft | 432 kts | 236° |
| 2026-05-06 13:28 | 41.76170 | 49.20745 | 34031 ft | 434 kts | 236° |
| 2026-05-06 13:28 | 41.72817 | 49.14028 | 34013 ft | 433 kts | 236° |
| 2026-05-06 13:29 | 41.69479 | 49.07349 | 34013 ft | 434 kts | 236° |
| 2026-05-06 13:29 | 41.66130 | 49.00661 | 34032 ft | 434 kts | 236° |
| 2026-05-06 13:30 | 41.62774 | 48.93963 | 34027 ft | 434 kts | 236° |
| 2026-05-06 13:30 | 41.59424 | 48.87293 | 34040 ft | 433 kts | 236° |
| 2026-05-06 13:31 | 41.56088 | 48.80664 | 34099 ft | 432 kts | 236° |
| 2026-05-06 13:31 | 41.54422 | 48.77364 | 33993 ft | 433 kts | 236° |
| 2026-05-06 13:31 | 41.52717 | 48.74027 | 34070 ft | 434 kts | 235° |
| 2026-05-06 13:32 | 41.49134 | 48.67582 | 34068 ft | 432 kts | 234° |
| 2026-05-06 13:32 | 41.45576 | 48.61186 | 34025 ft | 433 kts | 234° |
| 2026-05-06 13:33 | 41.41988 | 48.54764 | 34028 ft | 433 kts | 234° |
| 2026-05-06 13:33 | 41.38459 | 48.48309 | 34025 ft | 432 kts | 235° |
| 2026-05-06 13:34 | 41.34928 | 48.41822 | 34036 ft | 431 kts | 235° |
| 2026-05-06 13:34 | 41.31417 | 48.35379 | 34056 ft | 431 kts | 235° |
| 2026-05-06 13:35 | 41.27913 | 48.28971 | 34043 ft | 431 kts | 234° |
| 2026-05-06 13:35 | 41.24398 | 48.22555 | 34064 ft | 431 kts | 234° |
| 2026-05-06 13:36 | 41.20861 | 48.16102 | 34072 ft | 431 kts | 234° |
| 2026-05-06 13:36 | 41.17371 | 48.09736 | 34080 ft | 429 kts | 237° |
| 2026-05-06 13:37 | 41.14604 | 48.02699 | 34063 ft | 432 kts | 248° |
| 2026-05-06 13:37 | 41.13077 | 47.95027 | 34073 ft | 436 kts | 259° |
| 2026-05-06 13:38 | 41.12864 | 47.86983 | 34072 ft | 439 kts | 271° |
| 2026-05-06 13:38 | 41.13856 | 47.79027 | 34049 ft | 444 kts | 277° |
| 2026-05-06 13:39 | 41.15102 | 47.70988 | 34053 ft | 443 kts | 277° |
| 2026-05-06 13:39 | 41.16347 | 47.62992 | 34043 ft | 445 kts | 277° |
| 2026-05-06 13:40 | 41.17798 | 47.53624 | 34078 ft | 445 kts | 277° |
| 2026-05-06 13:40 | 41.18824 | 47.46965 | 34089 ft | 445 kts | 277° |
| 2026-05-06 13:41 | 41.20059 | 47.38916 | 34056 ft | 445 kts | 277° |
| 2026-05-06 13:41 | 41.21284 | 47.30881 | 34023 ft | 446 kts | 277° |
| 2026-05-06 13:42 | 41.22506 | 47.22836 | 34076 ft | 445 kts | 276° |
| 2026-05-06 13:42 | 41.23719 | 47.14803 | 34055 ft | 448 kts | 277° |
| 2026-05-06 13:43 | 41.24941 | 47.06683 | 34052 ft | 448 kts | 277° |
| 2026-05-06 13:43 | 41.26151 | 46.98603 | 34061 ft | 448 kts | 277° |
| 2026-05-06 13:44 | 41.27355 | 46.90505 | 34048 ft | 449 kts | 277° |
| 2026-05-06 13:44 | 41.28564 | 46.82370 | 34049 ft | 448 kts | 277° |
| 2026-05-06 13:45 | 41.29756 | 46.74269 | 34065 ft | 449 kts | 277° |
| 2026-05-06 13:45 | 41.31462 | 46.62111 | 34107 ft | 448 kts | 276° |
| 2026-05-06 13:46 | 41.32594 | 46.53962 | 34082 ft | 449 kts | 277° |
| 2026-05-06 13:46 | 41.33728 | 46.45790 | 34097 ft | 450 kts | 277° |
| 2026-05-06 13:47 | 41.34856 | 46.37619 | 34067 ft | 451 kts | 277° |
| 2026-05-06 13:47 | 41.35983 | 46.29424 | 34068 ft | 451 kts | 276° |
| 2026-05-06 13:48 | 41.37098 | 46.21275 | 34069 ft | 450 kts | 276° |
| 2026-05-06 13:48 | 41.38216 | 46.13050 | 34071 ft | 452 kts | 276° |
| 2026-05-06 13:49 | 41.39317 | 46.04908 | 34060 ft | 451 kts | 277° |
| 2026-05-06 13:49 | 41.40425 | 45.96673 | 34057 ft | 452 kts | 277° |
| 2026-05-06 13:50 | 41.41526 | 45.88442 | 34062 ft | 453 kts | 277° |
| 2026-05-06 13:50 | 41.42623 | 45.80204 | 34070 ft | 453 kts | 277° |
| 2026-05-06 13:51 | 41.43714 | 45.71975 | 34069 ft | 452 kts | 277° |
| 2026-05-06 13:51 | 41.44796 | 45.63736 | 34065 ft | 454 kts | 277° |
| 2026-05-06 13:52 | 41.45874 | 45.55501 | 34068 ft | 454 kts | 277° |
| 2026-05-06 13:52 | 41.46957 | 45.47192 | 34072 ft | 455 kts | 277° |
| 2026-05-06 13:53 | 41.48021 | 45.38947 | 34082 ft | 456 kts | 276° |
| 2026-05-06 13:53 | 41.48815 | 45.30597 | 34078 ft | 452 kts | 273° |
| 2026-05-06 13:54 | 41.49500 | 45.22225 | 34074 ft | 453 kts | 273° |
| 2026-05-06 13:54 | 41.50173 | 45.13911 | 34061 ft | 454 kts | 273° |
| 2026-05-06 13:55 | 41.50845 | 45.05564 | 34058 ft | 453 kts | 273° |
| 2026-05-06 13:55 | 41.51512 | 44.97223 | 34054 ft | 457 kts | 273° |
| 2026-05-06 13:56 | 41.52181 | 44.88795 | 34053 ft | 456 kts | 273° |
| 2026-05-06 13:56 | 41.52842 | 44.80375 | 34053 ft | 456 kts | 273° |
| 2026-05-06 13:57 | 41.53495 | 44.71992 | 34053 ft | 456 kts | 273° |
| 2026-05-06 13:57 | 41.54143 | 44.63601 | 34066 ft | 456 kts | 273° |
| 2026-05-06 13:58 | 41.54786 | 44.55167 | 34070 ft | 458 kts | 273° |
| 2026-05-06 13:58 | 41.55425 | 44.46760 | 34071 ft | 458 kts | 273° |
| 2026-05-06 13:59 | 41.56058 | 44.38310 | 34077 ft | 459 kts | 274° |
| 2026-05-06 13:59 | 41.56616 | 44.29821 | 34078 ft | 459 kts | 270° |
| 2026-05-06 14:00 | 41.56628 | 44.21372 | 34080 ft | 456 kts | 265° |
| 2026-05-06 14:00 | 41.56025 | 44.12994 | 34078 ft | 457 kts | 260° |
| 2026-05-06 14:01 | 41.55101 | 44.04591 | 34077 ft | 458 kts | 260° |
| 2026-05-06 14:01 | 41.54179 | 43.96285 | 34060 ft | 454 kts | 260° |
| 2026-05-06 14:02 | 41.53242 | 43.87918 | 34068 ft | 455 kts | 260° |
| 2026-05-06 14:02 | 41.52306 | 43.79607 | 34067 ft | 455 kts | 260° |
| 2026-05-06 14:03 | 41.51353 | 43.71215 | 34067 ft | 459 kts | 260° |
| 2026-05-06 14:03 | 41.50400 | 43.62853 | 34064 ft | 458 kts | 260° |
| 2026-05-06 14:04 | 41.49441 | 43.54485 | 34077 ft | 455 kts | 260° |
| 2026-05-06 14:04 | 41.48483 | 43.46192 | 34084 ft | 455 kts | 260° |
| 2026-05-06 14:05 | 41.47507 | 43.37813 | 34084 ft | 458 kts | 260° |
| 2026-05-06 14:05 | 41.46526 | 43.29424 | 34100 ft | 457 kts | 259° |
| 2026-05-06 14:06 | 41.45547 | 43.21102 | 34095 ft | 457 kts | 259° |
| 2026-05-06 14:06 | 41.44561 | 43.12769 | 34097 ft | 455 kts | 259° |
| 2026-05-06 14:07 | 41.43567 | 43.04420 | 34103 ft | 460 kts | 259° |
| 2026-05-06 14:07 | 41.42553 | 42.95980 | 34095 ft | 462 kts | 259° |
| 2026-05-06 14:08 | 41.41527 | 42.87566 | 34326 ft | 463 kts | 259° |
| 2026-05-06 14:08 | 41.41014 | 42.83363 | 34753 ft | 458 kts | 259° |
| 2026-05-06 14:08 | 41.40508 | 42.79228 | 34997 ft | 457 kts | 259° |
| 2026-05-06 14:09 | 41.39996 | 42.75056 | 35148 ft | 459 kts | 259° |
| 2026-05-06 14:09 | 41.39482 | 42.70886 | 35280 ft | 461 kts | 259° |
| 2026-05-06 14:09 | 41.38960 | 42.66650 | 35531 ft | 459 kts | 259° |
| 2026-05-06 14:09 | 41.38448 | 42.62500 | 35778 ft | 458 kts | 259° |
| 2026-05-06 14:10 | 41.37405 | 42.54107 | 35987 ft | 463 kts | 259° |
| 2026-05-06 14:10 | 41.36881 | 42.49904 | 36167 ft | 463 kts | 259° |
| 2026-05-06 14:10 | 41.36353 | 42.45689 | 36340 ft | 463 kts | 259° |
| 2026-05-06 14:11 | 41.35829 | 42.41499 | 36534 ft | 462 kts | 259° |
| 2026-05-06 14:11 | 41.35302 | 42.37312 | 36718 ft | 462 kts | 259° |
| 2026-05-06 14:11 | 41.34769 | 42.33091 | 36857 ft | 464 kts | 259° |
| 2026-05-06 14:11 | 41.34231 | 42.28837 | 36941 ft | 466 kts | 259° |
| 2026-05-06 14:12 | 41.33697 | 42.24628 | 37083 ft | 466 kts | 259° |
| 2026-05-06 14:12 | 41.33159 | 42.20387 | 37275 ft | 466 kts | 259° |
| 2026-05-06 14:12 | 41.32616 | 42.16138 | 37443 ft | 466 kts | 259° |
| 2026-05-06 14:12 | 41.32072 | 42.11881 | 37543 ft | 468 kts | 259° |
| 2026-05-06 14:13 | 41.31527 | 42.07623 | 37702 ft | 468 kts | 259° |
| 2026-05-06 14:13 | 41.30986 | 42.03411 | 37851 ft | 468 kts | 259° |
| 2026-05-06 14:13 | 41.30432 | 41.99129 | 37993 ft | 468 kts | 259° |
| 2026-05-06 14:13 | 41.29884 | 41.94912 | 38099 ft | 468 kts | 259° |
| 2026-05-06 14:14 | 41.28755 | 41.86388 | 38106 ft | 468 kts | 259° |
| 2026-05-06 14:14 | 41.27625 | 41.77900 | 38114 ft | 470 kts | 259° |
| 2026-05-06 14:15 | 41.26491 | 41.69395 | 38129 ft | 469 kts | 259° |
| 2026-05-06 14:15 | 41.25352 | 41.60893 | 38130 ft | 471 kts | 259° |
| 2026-05-06 14:16 | 41.24196 | 41.52313 | 38116 ft | 472 kts | 259° |
| 2026-05-06 14:16 | 41.23044 | 41.43803 | 38105 ft | 472 kts | 259° |
| 2026-05-06 14:17 | 41.21879 | 41.35247 | 38108 ft | 472 kts | 259° |
| 2026-05-06 14:17 | 41.20711 | 41.26723 | 38119 ft | 472 kts | 258° |
| 2026-05-06 14:18 | 41.19526 | 41.18124 | 38141 ft | 472 kts | 258° |
| 2026-05-06 14:18 | 41.18348 | 41.09620 | 38157 ft | 473 kts | 258° |
| 2026-05-06 14:19 | 41.17148 | 41.01005 | 38160 ft | 474 kts | 258° |
| 2026-05-06 14:19 | 41.15945 | 40.92424 | 38163 ft | 475 kts | 258° |
| 2026-05-06 14:20 | 41.14746 | 40.83923 | 38158 ft | 474 kts | 258° |
| 2026-05-06 14:20 | 41.13524 | 40.75300 | 38165 ft | 475 kts | 258° |
| 2026-05-06 14:21 | 41.12304 | 40.66735 | 38157 ft | 475 kts | 258° |
| 2026-05-06 14:21 | 41.11079 | 40.58189 | 38156 ft | 475 kts | 258° |
| 2026-05-06 14:22 | 41.09847 | 40.49633 | 38151 ft | 475 kts | 258° |
| 2026-05-06 14:22 | 41.08604 | 40.41049 | 38140 ft | 475 kts | 258° |
| 2026-05-06 14:23 | 41.07355 | 40.32480 | 38123 ft | 476 kts | 258° |
| 2026-05-06 14:23 | 41.06099 | 40.23892 | 38140 ft | 476 kts | 258° |
| 2026-05-06 14:24 | 41.04834 | 40.15293 | 38124 ft | 477 kts | 258° |
| 2026-05-06 14:24 | 41.03574 | 40.06750 | 38148 ft | 476 kts | 258° |
| 2026-05-06 14:25 | 41.02295 | 39.98145 | 38145 ft | 477 kts | 258° |
| 2026-05-06 14:25 | 41.01076 | 39.89570 | 38150 ft | 477 kts | 261° |
| 2026-05-06 14:26 | 41.00392 | 39.80865 | 38159 ft | 476 kts | 266° |
| 2026-05-06 14:26 | 41.00370 | 39.72110 | 38170 ft | 478 kts | 272° |
| 2026-05-06 14:27 | 41.00997 | 39.63387 | 38157 ft | 479 kts | 276° |
| 2026-05-06 14:27 | 41.01847 | 39.54664 | 38158 ft | 479 kts | 277° |
| 2026-05-06 14:28 | 41.02687 | 39.45950 | 38159 ft | 481 kts | 277° |
| 2026-05-06 14:28 | 41.03525 | 39.37135 | 38160 ft | 482 kts | 277° |
| 2026-05-06 14:29 | 41.04347 | 39.28371 | 38142 ft | 481 kts | 276° |
| 2026-05-06 14:29 | 41.05161 | 39.19606 | 38120 ft | 481 kts | 276° |
| 2026-05-06 14:30 | 41.05965 | 39.10855 | 38140 ft | 481 kts | 276° |
| 2026-05-06 14:30 | 41.06772 | 39.02099 | 38120 ft | 481 kts | 276° |
| 2026-05-06 14:31 | 41.07581 | 38.93305 | 38124 ft | 482 kts | 276° |
| 2026-05-06 14:31 | 41.08382 | 38.84528 | 38145 ft | 482 kts | 276° |
| 2026-05-06 14:32 | 41.09178 | 38.75740 | 38158 ft | 482 kts | 276° |
| 2026-05-06 14:32 | 41.09963 | 38.66907 | 38130 ft | 482 kts | 276° |
| 2026-05-06 14:33 | 41.10719 | 38.58133 | 38143 ft | 481 kts | 276° |
| 2026-05-06 14:33 | 41.11454 | 38.49337 | 38136 ft | 482 kts | 276° |
| 2026-05-06 14:34 | 41.12185 | 38.40571 | 38139 ft | 482 kts | 276° |
| 2026-05-06 14:34 | 41.12913 | 38.31760 | 38152 ft | 481 kts | 276° |
| 2026-05-06 14:35 | 41.13630 | 38.23002 | 38175 ft | 481 kts | 276° |
| 2026-05-06 14:35 | 41.14348 | 38.14206 | 38167 ft | 481 kts | 276° |
| 2026-05-06 14:36 | 41.15061 | 38.05410 | 38162 ft | 481 kts | 276° |
| 2026-05-06 14:36 | 41.15772 | 37.96601 | 38151 ft | 480 kts | 276° |
| 2026-05-06 14:37 | 41.16465 | 37.87884 | 38158 ft | 480 kts | 276° |
| 2026-05-06 14:37 | 41.17213 | 37.79048 | 38160 ft | 481 kts | 277° |
| 2026-05-06 14:38 | 41.17963 | 37.70287 | 38133 ft | 481 kts | 277° |
| 2026-05-06 14:38 | 41.18679 | 37.61465 | 38127 ft | 480 kts | 275° |
| 2026-05-06 14:39 | 41.19188 | 37.52691 | 38129 ft | 480 kts | 276° |
| 2026-05-06 14:39 | 41.19839 | 37.43877 | 38127 ft | 481 kts | 276° |
| 2026-05-06 14:40 | 41.20499 | 37.35071 | 38132 ft | 481 kts | 276° |
| 2026-05-06 14:40 | 41.21148 | 37.26272 | 38129 ft | 481 kts | 276° |
| 2026-05-06 14:41 | 41.21804 | 37.17466 | 38127 ft | 481 kts | 276° |
| 2026-05-06 14:41 | 41.22488 | 37.08678 | 38120 ft | 481 kts | 276° |
| 2026-05-06 14:42 | 41.23172 | 36.99834 | 38125 ft | 481 kts | 276° |
| 2026-05-06 14:42 | 41.23848 | 36.90998 | 38123 ft | 482 kts | 276° |
| 2026-05-06 14:43 | 41.24514 | 36.82164 | 38127 ft | 481 kts | 276° |
| 2026-05-06 14:43 | 41.25171 | 36.73405 | 38141 ft | 482 kts | 276° |
| 2026-05-06 14:44 | 41.25825 | 36.64555 | 38142 ft | 481 kts | 277° |
| 2026-05-06 14:45 | 41.27561 | 36.51490 | 38150 ft | 480 kts | 285° |
| 2026-05-06 14:45 | 41.29501 | 36.43067 | 38146 ft | 479 kts | 289° |
| 2026-05-06 14:46 | 41.31640 | 36.34699 | 38154 ft | 479 kts | 289° |
| 2026-05-06 14:46 | 41.33774 | 36.26334 | 38131 ft | 479 kts | 289° |
| 2026-05-06 14:47 | 41.35898 | 36.17949 | 38115 ft | 479 kts | 289° |
| 2026-05-06 14:47 | 41.38000 | 36.09611 | 38112 ft | 477 kts | 289° |
| 2026-05-06 14:48 | 41.40098 | 36.01261 | 38111 ft | 477 kts | 289° |
| 2026-05-06 14:48 | 41.42188 | 35.92907 | 38119 ft | 476 kts | 289° |
| 2026-05-06 14:49 | 41.44276 | 35.84533 | 38093 ft | 477 kts | 289° |
| 2026-05-06 14:49 | 41.46346 | 35.76205 | 38094 ft | 477 kts | 289° |
| 2026-05-06 14:50 | 41.48419 | 35.67838 | 38109 ft | 478 kts | 289° |
| 2026-05-06 14:50 | 41.50491 | 35.59436 | 38102 ft | 477 kts | 289° |
| 2026-05-06 14:51 | 41.52557 | 35.51030 | 38094 ft | 477 kts | 289° |
| 2026-05-06 14:51 | 41.54615 | 35.42632 | 38091 ft | 476 kts | 289° |
| 2026-05-06 14:52 | 41.56661 | 35.34251 | 38100 ft | 475 kts | 289° |
| 2026-05-06 14:52 | 41.58693 | 35.25888 | 38100 ft | 476 kts | 289° |
| 2026-05-06 14:53 | 41.60721 | 35.17526 | 38079 ft | 476 kts | 289° |
| 2026-05-06 14:53 | 41.62753 | 35.09109 | 38091 ft | 476 kts | 289° |
| 2026-05-06 14:54 | 41.64769 | 35.00727 | 38090 ft | 476 kts | 289° |
| 2026-05-06 14:54 | 41.66783 | 34.92326 | 38062 ft | 476 kts | 289° |
| 2026-05-06 14:55 | 41.68791 | 34.83925 | 38065 ft | 475 kts | 289° |
| 2026-05-06 14:55 | 41.70794 | 34.75514 | 38091 ft | 475 kts | 289° |
| 2026-05-06 14:56 | 41.72776 | 34.67159 | 38073 ft | 474 kts | 289° |
| 2026-05-06 14:56 | 41.74764 | 34.58751 | 38093 ft | 475 kts | 289° |
| 2026-05-06 14:57 | 41.76740 | 34.50332 | 38141 ft | 475 kts | 289° |
| 2026-05-06 14:57 | 41.78711 | 34.41906 | 38107 ft | 475 kts | 289° |
| 2026-05-06 14:58 | 41.80672 | 34.33504 | 38085 ft | 475 kts | 289° |
| 2026-05-06 14:58 | 41.82631 | 34.25071 | 38103 ft | 474 kts | 289° |
| 2026-05-06 14:59 | 41.84578 | 34.16672 | 38098 ft | 475 kts | 289° |
| 2026-05-06 14:59 | 41.86532 | 34.08212 | 38087 ft | 475 kts | 289° |
| 2026-05-06 15:00 | 41.88467 | 33.99807 | 38083 ft | 475 kts | 289° |
| 2026-05-06 15:00 | 41.90402 | 33.91365 | 38116 ft | 474 kts | 289° |
| 2026-05-06 15:01 | 41.92330 | 33.82926 | 38142 ft | 475 kts | 289° |
| 2026-05-06 15:01 | 41.94254 | 33.74463 | 38069 ft | 474 kts | 289° |
| 2026-05-06 15:02 | 41.96027 | 33.66005 | 38115 ft | 474 kts | 287° |
| 2026-05-06 15:02 | 41.97668 | 33.57476 | 38114 ft | 474 kts | 287° |
| 2026-05-06 15:03 | 41.99305 | 33.48933 | 38110 ft | 473 kts | 287° |
| 2026-05-06 15:03 | 42.00958 | 33.40376 | 38117 ft | 474 kts | 287° |
| 2026-05-06 15:04 | 42.02712 | 33.31866 | 38111 ft | 473 kts | 287° |
| 2026-05-06 15:04 | 42.04472 | 33.23352 | 38116 ft | 473 kts | 287° |
| 2026-05-06 15:05 | 42.06206 | 33.14901 | 38133 ft | 473 kts | 287° |
| 2026-05-06 15:05 | 42.07951 | 33.06354 | 38116 ft | 472 kts | 287° |
| 2026-05-06 15:06 | 42.09669 | 32.97896 | 38090 ft | 472 kts | 287° |
| 2026-05-06 15:06 | 42.11389 | 32.89391 | 38098 ft | 473 kts | 287° |
| 2026-05-06 15:07 | 42.13108 | 32.80853 | 38132 ft | 473 kts | 287° |
| 2026-05-06 15:07 | 42.14807 | 32.72376 | 38122 ft | 472 kts | 287° |
| 2026-05-06 15:08 | 42.16507 | 32.63860 | 38106 ft | 470 kts | 287° |
| 2026-05-06 15:08 | 42.18193 | 32.55378 | 38133 ft | 470 kts | 287° |
| 2026-05-06 15:09 | 42.19867 | 32.46923 | 38073 ft | 470 kts | 287° |
| 2026-05-06 15:09 | 42.21545 | 32.38409 | 38118 ft | 471 kts | 288° |
| 2026-05-06 15:10 | 42.23211 | 32.29916 | 38070 ft | 471 kts | 287° |
| 2026-05-06 15:10 | 42.24876 | 32.21402 | 38104 ft | 470 kts | 287° |
| 2026-05-06 15:11 | 42.26530 | 32.12902 | 38075 ft | 470 kts | 287° |
| 2026-05-06 15:11 | 42.28178 | 32.04392 | 38102 ft | 469 kts | 287° |
| 2026-05-06 15:12 | 42.29814 | 31.95915 | 38102 ft | 469 kts | 287° |
| 2026-05-06 15:12 | 42.31446 | 31.87418 | 38051 ft | 470 kts | 287° |
| 2026-05-06 15:13 | 42.33078 | 31.78891 | 38066 ft | 469 kts | 287° |
| 2026-05-06 15:13 | 42.34688 | 31.70424 | 38142 ft | 469 kts | 287° |
| 2026-05-06 15:13 | 42.35505 | 31.66116 | 38031 ft | 470 kts | 287° |
| 2026-05-06 15:14 | 42.36309 | 31.61870 | 38057 ft | 470 kts | 287° |
| 2026-05-06 15:14 | 42.37921 | 31.53337 | 38136 ft | 470 kts | 287° |
| 2026-05-06 15:15 | 42.39527 | 31.44791 | 38084 ft | 470 kts | 287° |
| 2026-05-06 15:15 | 42.41118 | 31.36291 | 38077 ft | 470 kts | 287° |
| 2026-05-06 15:16 | 42.42710 | 31.27738 | 38039 ft | 469 kts | 286° |
| 2026-05-06 15:16 | 42.44295 | 31.19183 | 38100 ft | 469 kts | 287° |
| 2026-05-06 15:17 | 42.45862 | 31.10691 | 38084 ft | 468 kts | 287° |
| 2026-05-06 15:17 | 42.47437 | 31.02122 | 38088 ft | 469 kts | 287° |
| 2026-05-06 15:18 | 42.49001 | 30.93574 | 38071 ft | 470 kts | 287° |
| 2026-05-06 15:18 | 42.50561 | 30.85013 | 38075 ft | 469 kts | 287° |
| 2026-05-06 15:19 | 42.52103 | 30.76507 | 38084 ft | 468 kts | 287° |
| 2026-05-06 15:19 | 42.53650 | 30.67931 | 38077 ft | 468 kts | 287° |
| 2026-05-06 15:20 | 42.55186 | 30.59378 | 38069 ft | 468 kts | 287° |
| 2026-05-06 15:20 | 42.56716 | 30.50847 | 38085 ft | 467 kts | 287° |
| 2026-05-06 15:21 | 42.58234 | 30.42312 | 38085 ft | 468 kts | 287° |
| 2026-05-06 15:21 | 42.60255 | 30.34023 | 38079 ft | 464 kts | 296° |
| 2026-05-06 15:22 | 42.63467 | 30.26529 | 38083 ft | 460 kts | 308° |
| 2026-05-06 15:22 | 42.67746 | 30.20095 | 38093 ft | 458 kts | 319° |
| 2026-05-06 15:23 | 42.72773 | 30.14823 | 38064 ft | 457 kts | 325° |
| 2026-05-06 15:23 | 42.77916 | 30.09809 | 38090 ft | 458 kts | 325° |
| 2026-05-06 15:24 | 42.83092 | 30.04749 | 38082 ft | 457 kts | 325° |
| 2026-05-06 15:24 | 42.88248 | 29.99678 | 38070 ft | 457 kts | 325° |
| 2026-05-06 15:25 | 42.93370 | 29.94625 | 38071 ft | 457 kts | 325° |
| 2026-05-06 15:25 | 42.98524 | 29.89529 | 38073 ft | 458 kts | 325° |
| 2026-05-06 15:26 | 43.03671 | 29.84428 | 38110 ft | 458 kts | 325° |
| 2026-05-06 15:26 | 43.08810 | 29.79324 | 38084 ft | 459 kts | 325° |
| 2026-05-06 15:27 | 43.13932 | 29.74228 | 38085 ft | 458 kts | 325° |
| 2026-05-06 15:27 | 43.19088 | 29.69085 | 38076 ft | 458 kts | 325° |
| 2026-05-06 15:28 | 43.24198 | 29.63979 | 38078 ft | 458 kts | 325° |
| 2026-05-06 15:28 | 43.29339 | 29.58831 | 38095 ft | 457 kts | 325° |
| 2026-05-06 15:29 | 43.34448 | 29.53702 | 38063 ft | 457 kts | 325° |
| 2026-05-06 15:29 | 43.39563 | 29.48555 | 38089 ft | 457 kts | 325° |
| 2026-05-06 15:30 | 43.44687 | 29.43388 | 38080 ft | 458 kts | 325° |
| 2026-05-06 15:30 | 43.49816 | 29.38207 | 38080 ft | 457 kts | 325° |
| 2026-05-06 15:31 | 43.54908 | 29.33052 | 38073 ft | 457 kts | 324° |
| 2026-05-06 15:31 | 43.60014 | 29.27873 | 38074 ft | 457 kts | 324° |
| 2026-05-06 15:32 | 43.67707 | 29.20052 | 38078 ft | 457 kts | 324° |
| 2026-05-06 15:32 | 43.72790 | 29.14872 | 38074 ft | 458 kts | 325° |
| 2026-05-06 15:33 | 43.78029 | 29.09874 | 38076 ft | 458 kts | 326° |
| 2026-05-06 15:33 | 43.83290 | 29.04938 | 38069 ft | 458 kts | 326° |
| 2026-05-06 15:34 | 43.88543 | 28.99996 | 38075 ft | 457 kts | 326° |
| 2026-05-06 15:34 | 43.93803 | 28.95031 | 38071 ft | 458 kts | 326° |
| 2026-05-06 15:35 | 43.99067 | 28.90052 | 38094 ft | 458 kts | 326° |
| 2026-05-06 15:35 | 44.04277 | 28.85111 | 38094 ft | 457 kts | 326° |
| 2026-05-06 15:36 | 44.09514 | 28.80135 | 38074 ft | 456 kts | 327° |
| 2026-05-06 15:36 | 44.14764 | 28.75138 | 38084 ft | 457 kts | 326° |
| 2026-05-06 15:37 | 44.19986 | 28.70155 | 38090 ft | 457 kts | 326° |
| 2026-05-06 15:37 | 44.25196 | 28.65170 | 38077 ft | 456 kts | 326° |
| 2026-05-06 15:38 | 44.30432 | 28.60151 | 38092 ft | 456 kts | 326° |
| 2026-05-06 15:38 | 44.35640 | 28.55148 | 38089 ft | 457 kts | 326° |
| 2026-05-06 15:39 | 44.40842 | 28.50139 | 38089 ft | 456 kts | 326° |
| 2026-05-06 15:39 | 44.46066 | 28.45100 | 38083 ft | 455 kts | 327° |
| 2026-05-06 15:40 | 44.51242 | 28.40095 | 38083 ft | 455 kts | 326° |
| 2026-05-06 15:40 | 44.56448 | 28.35051 | 38085 ft | 455 kts | 326° |
| 2026-05-06 15:41 | 44.61640 | 28.30009 | 38065 ft | 455 kts | 326° |
| 2026-05-06 15:41 | 44.66841 | 28.24949 | 38059 ft | 455 kts | 326° |
| 2026-05-06 15:42 | 44.72010 | 28.19906 | 38046 ft | 455 kts | 326° |
| 2026-05-06 15:42 | 44.77066 | 28.14583 | 38040 ft | 456 kts | 321° |
| 2026-05-06 15:43 | 44.81677 | 28.08479 | 38064 ft | 457 kts | 314° |
| 2026-05-06 15:43 | 44.85771 | 28.01651 | 38059 ft | 458 kts | 308° |
| 2026-05-06 15:44 | 44.89331 | 27.94207 | 38033 ft | 459 kts | 304° |
| 2026-05-06 15:44 | 44.92714 | 27.86625 | 38031 ft | 458 kts | 304° |
| 2026-05-06 15:45 | 44.96097 | 27.79019 | 38029 ft | 460 kts | 304° |
| 2026-05-06 15:45 | 44.99478 | 27.71407 | 38032 ft | 459 kts | 304° |
| 2026-05-06 15:46 | 45.02855 | 27.63790 | 38030 ft | 457 kts | 304° |
| 2026-05-06 15:46 | 45.06204 | 27.56218 | 38026 ft | 458 kts | 304° |
| 2026-05-06 15:47 | 45.09568 | 27.48591 | 38026 ft | 458 kts | 304° |
| 2026-05-06 15:47 | 45.12922 | 27.40966 | 38024 ft | 457 kts | 304° |
| 2026-05-06 15:48 | 45.16255 | 27.33365 | 38023 ft | 457 kts | 303° |
| 2026-05-06 15:48 | 45.19584 | 27.25755 | 38016 ft | 456 kts | 303° |
| 2026-05-06 15:49 | 45.22910 | 27.18136 | 38015 ft | 456 kts | 303° |
| 2026-05-06 15:49 | 45.26226 | 27.10518 | 38032 ft | 457 kts | 303° |
| 2026-05-06 15:50 | 45.29554 | 27.02850 | 38022 ft | 456 kts | 303° |
| 2026-05-06 15:50 | 45.32860 | 26.95212 | 38010 ft | 454 kts | 303° |
| 2026-05-06 15:51 | 45.36162 | 26.87563 | 38020 ft | 455 kts | 303° |
| 2026-05-06 15:51 | 45.39430 | 26.79975 | 38021 ft | 452 kts | 303° |
| 2026-05-06 15:52 | 45.42701 | 26.72360 | 38021 ft | 453 kts | 303° |
| 2026-05-06 15:52 | 45.45985 | 26.64693 | 38037 ft | 453 kts | 303° |
| 2026-05-06 15:53 | 45.49226 | 26.57097 | 38030 ft | 451 kts | 302° |
| 2026-05-06 15:53 | 45.52284 | 26.49267 | 38040 ft | 451 kts | 301° |
| 2026-05-06 15:54 | 45.55268 | 26.41451 | 38040 ft | 451 kts | 301° |
| 2026-05-06 15:54 | 45.58235 | 26.33662 | 38043 ft | 451 kts | 300° |
| 2026-05-06 15:55 | 45.61209 | 26.25839 | 38038 ft | 448 kts | 300° |
| 2026-05-06 15:55 | 45.64193 | 26.17981 | 38046 ft | 450 kts | 300° |
| 2026-05-06 15:56 | 45.67156 | 26.10149 | 38036 ft | 449 kts | 300° |
| 2026-05-06 15:56 | 45.70105 | 26.02332 | 38049 ft | 448 kts | 300° |
| 2026-05-06 15:57 | 45.73048 | 25.94512 | 38046 ft | 448 kts | 300° |
| 2026-05-06 15:57 | 45.75982 | 25.86697 | 38013 ft | 448 kts | 300° |
| 2026-05-06 15:58 | 45.78914 | 25.78861 | 38006 ft | 447 kts | 300° |
| 2026-05-06 15:58 | 45.81834 | 25.71033 | 38007 ft | 447 kts | 300° |
| 2026-05-06 15:59 | 45.84747 | 25.63208 | 37998 ft | 447 kts | 300° |
| 2026-05-06 15:59 | 45.87667 | 25.55334 | 38003 ft | 447 kts | 300° |
| 2026-05-06 16:00 | 45.90567 | 25.47496 | 38009 ft | 447 kts | 300° |
| 2026-05-06 16:00 | 45.93469 | 25.39628 | 37997 ft | 447 kts | 300° |
| 2026-05-06 16:01 | 45.96381 | 25.31721 | 38005 ft | 448 kts | 299° |
| 2026-05-06 16:01 | 45.99261 | 25.23866 | 37995 ft | 447 kts | 299° |
| 2026-05-06 16:02 | 46.02140 | 25.15994 | 37989 ft | 447 kts | 298° |
| 2026-05-06 16:02 | 46.05231 | 25.08244 | 37975 ft | 444 kts | 303° |
| 2026-05-06 16:03 | 46.08749 | 25.01015 | 37989 ft | 445 kts | 307° |